Time;durP1;ratioP1;P1;durP2;ratioP2;P2;SDS_P1;SDS_P2;PMS_P1;PMS_P2;Temp;Humidity;BMP_temperature;BMP_pressure;BME280_temperature;BME280_humidity;BME280_pressure;Samples;Min_cycle;Max_cycle;Signal;HPM_P1;HPM_P2
2021/08/22 00:00:23;;;;;;;12.77;11.02;;;21.50;79.90;;;;;;5089485;28;20033;-57
2021/08/22 00:02:49;;;;;;;11.60;10.40;;;21.60;80.30;;;;;;5077336;28;20056;-56
2021/08/22 00:05:14;;;;;;;12.82;11.15;;;21.50;80.50;;;;;;5077720;28;20047;-55
2021/08/22 00:07:40;;;;;;;13.23;10.85;;;21.50;80.60;;;;;;5074799;28;20040;-56
2021/08/22 00:10:06;;;;;;;13.88;12.02;;;21.50;80.30;;;;;;5081209;28;20032;-57
2021/08/22 00:12:31;;;;;;;16.85;11.95;;;21.50;80.40;;;;;;5088815;28;20499;-55
2021/08/22 00:14:57;;;;;;;26.70;20.73;;;21.60;80.30;;;;;;5080882;28;20017;-50
2021/08/22 00:17:23;;;;;;;19.40;15.45;;;21.40;80.90;;;;;;5085469;28;20016;-53
2021/08/22 00:19:48;;;;;;;23.65;19.02;;;21.40;81.20;;;;;;5095692;28;20024;-57
2021/08/22 00:22:14;;;;;;;38.75;29.02;;;21.40;81.20;;;;;;5095701;28;20035;-55
2021/08/22 00:24:40;;;;;;;37.97;28.88;;;21.40;80.80;;;;;;5095240;28;20044;-55
2021/08/22 00:27:05;;;;;;;18.05;15.65;;;21.40;80.80;;;;;;5095417;28;20032;-56
2021/08/22 00:29:31;;;;;;;16.05;13.15;;;21.30;80.30;;;;;;5094813;28;20040;-52
2021/08/22 00:31:56;;;;;;;11.68;10.48;;;21.30;80.50;;;;;;5095175;28;20043;-55
2021/08/22 00:34:22;;;;;;;12.77;10.88;;;21.30;79.90;;;;;;5095227;28;20024;-53
2021/08/22 00:36:48;;;;;;;13.45;10.93;;;21.20;80.30;;;;;;5094611;28;20392;-52
2021/08/22 00:39:13;;;;;;;12.77;10.32;;;21.10;80.80;;;;;;5094711;28;20024;-55
2021/08/22 00:41:40;;;;;;;11.00;10.00;;;21.20;80.90;;;;;;5094822;28;20040;-53
2021/08/22 00:44:06;;;;;;;22.38;17.95;;;21.10;81.30;;;;;;5095378;28;20035;-53
2021/08/22 00:46:32;;;;;;;19.40;16.50;;;21.10;81.40;;;;;;5094313;28;20035;-56
2021/08/22 00:48:58;;;;;;;15.82;12.70;;;21.10;81.70;;;;;;5094727;28;20036;-54
2021/08/22 00:51:23;;;;;;;12.98;11.73;;;21.00;82.00;;;;;;5094608;28;20039;-55
2021/08/22 00:53:49;;;;;;;12.48;11.27;;;21.00;82.10;;;;;;5094533;28;20021;-56
2021/08/22 00:56:16;;;;;;;11.63;10.27;;;21.00;82.40;;;;;;5094381;28;20579;-54
2021/08/22 00:58:45;;;;;;;11.45;10.30;;;21.00;82.30;;;;;;5076410;28;20391;-54
2021/08/22 01:01:17;;;;;;;9.75;8.85;;;20.90;82.30;;;;;;5094793;28;20127;-54
2021/08/22 01:04:27;;;;;;;10.27;9.27;;;20.80;82.50;;;;;;5094237;28;20035;-52
2021/08/22 01:06:59;;;;;;;17.92;10.30;;;20.80;82.70;;;;;;5038446;28;20121;-55
2021/08/22 01:09:40;;;;;;;10.73;9.63;;;20.70;82.80;;;;;;5094461;28;20032;-56
2021/08/22 01:12:11;;;;;;;11.45;10.25;;;20.70;82.50;;;;;;5094369;28;20036;-54
2021/08/22 01:14:42;;;;;;;11.25;9.20;;;20.50;82.70;;;;;;5094073;28;20036;-53
2021/08/22 01:17:08;;;;;;;10.77;9.68;;;20.40;83.40;;;;;;5094153;28;20035;-56
2021/08/22 01:19:34;;;;;;;24.77;18.20;;;20.50;83.20;;;;;;5094241;28;20036;-55
2021/08/22 01:22:02;;;;;;;15.50;13.00;;;20.50;83.10;;;;;;5093989;28;20031;-57
2021/08/22 01:24:29;;;;;;;12.30;10.30;;;20.50;83.20;;;;;;5094375;28;20090;-56
2021/08/22 01:26:59;;;;;;;11.27;10.18;;;20.50;83.20;;;;;;5094133;28;20036;-54
2021/08/22 01:29:29;;;;;;;11.90;9.68;;;20.50;83.00;;;;;;5093991;28;20042;-56
2021/08/22 01:31:59;;;;;;;10.18;9.07;;;20.50;83.00;;;;;;5076925;28;20060;-55
2021/08/22 01:34:26;;;;;;;11.63;9.95;;;20.50;83.00;;;;;;5073884;28;20037;-56
2021/08/22 01:36:52;;;;;;;10.57;9.48;;;20.60;82.80;;;;;;5073465;28;20032;-58
2021/08/22 01:39:19;;;;;;;10.63;9.52;;;20.60;82.70;;;;;;5055738;28;20124;-59
2021/08/22 01:41:47;;;;;;;11.00;9.38;;;20.60;82.80;;;;;;5073094;28;20051;-50
2021/08/22 01:44:20;;;;;;;9.93;8.93;;;20.60;82.80;;;;;;5073536;28;20036;-55
2021/08/22 01:46:47;;;;;;;10.32;9.32;;;20.60;82.80;;;;;;5073298;28;20556;-56
2021/08/22 01:49:14;;;;;;;10.50;9.50;;;20.70;83.00;;;;;;5073755;28;20025;-56
2021/08/22 01:51:41;;;;;;;10.48;9.02;;;20.70;83.10;;;;;;5055568;28;20040;-55
2021/08/22 01:54:09;;;;;;;9.00;8.10;;;20.70;83.20;;;;;;5073654;28;20041;-52
2021/08/22 01:56:39;;;;;;;10.75;9.18;;;20.80;83.10;;;;;;5071795;28;20032;-54
2021/08/22 01:59:05;;;;;;;10.05;9.15;;;20.80;83.20;;;;;;5078773;28;20115;-51
2021/08/22 02:01:33;;;;;;;11.75;9.70;;;20.80;83.60;;;;;;5093310;28;20065;-55
2021/08/22 02:04:58;;;;;;;10.30;8.75;;;20.80;83.90;;;;;;5092121;28;20031;-55
2021/08/22 02:07:29;;;;;;;10.02;9.02;;;20.80;84.30;;;;;;4991065;28;20704;-55
2021/08/22 02:10:09;;;;;;;11.70;9.38;;;20.80;84.60;;;;;;4991579;28;20129;-52
2021/08/22 02:12:35;;;;;;;13.00;9.80;;;20.80;84.90;;;;;;5066584;28;20140;-54
2021/08/22 02:15:06;;;;;;;10.63;9.48;;;20.70;85.30;;;;;;5092784;28;20024;-56
2021/08/22 02:17:35;;;;;;;11.00;9.90;;;20.60;85.50;;;;;;5092970;28;20066;-52
2021/08/22 02:20:04;;;;;;;9.98;9.07;;;20.60;85.60;;;;;;5083464;28;20044;-51
2021/08/22 02:22:31;;;;;;;10.30;9.30;;;20.70;85.80;;;;;;5072207;28;20028;-56
2021/08/22 02:24:58;;;;;;;11.27;9.90;;;20.70;85.70;;;;;;5072777;28;20051;-55
2021/08/22 02:27:23;;;;;;;11.18;9.93;;;20.70;85.70;;;;;;5072297;28;20036;-56
2021/08/22 02:29:51;;;;;;;12.98;9.95;;;20.60;86.10;;;;;;5072542;28;20422;-54
2021/08/22 02:32:17;;;;;;;11.30;10.20;;;20.60;85.90;;;;;;5072574;28;20031;-54
2021/08/22 02:34:44;;;;;;;10.55;9.50;;;20.60;85.70;;;;;;5072371;28;20031;-54
2021/08/22 02:37:09;;;;;;;13.23;10.32;;;20.60;85.30;;;;;;5072175;28;20115;-56
2021/08/22 02:39:36;;;;;;;10.73;9.32;;;20.60;85.10;;;;;;5072960;28;20133;-55
2021/08/22 02:42:03;;;;;;;10.88;9.70;;;20.60;85.10;;;;;;5072695;28;20044;-54
2021/08/22 02:44:29;;;;;;;11.07;9.73;;;20.60;85.10;;;;;;5054381;28;20068;-54
2021/08/22 02:46:55;;;;;;;10.85;9.43;;;20.60;85.10;;;;;;5071821;28;20676;-53
2021/08/22 02:49:20;;;;;;;9.98;9.02;;;20.50;85.20;;;;;;5072433;28;20495;-51
2021/08/22 02:51:46;;;;;;;10.93;9.63;;;20.50;85.50;;;;;;5071830;28;20037;-56
2021/08/22 02:54:11;;;;;;;10.70;9.70;;;20.40;85.60;;;;;;5053474;28;20068;-52
2021/08/22 02:56:37;;;;;;;10.85;9.85;;;20.40;85.80;;;;;;5071706;28;20094;-55
2021/08/22 02:59:02;;;;;;;10.80;9.80;;;20.40;86.00;;;;;;5077485;28;20020;-57
2021/08/22 03:01:28;;;;;;;11.65;10.38;;;20.30;86.10;;;;;;5092257;28;20044;-53
2021/08/22 03:03:53;;;;;;;11.90;10.75;;;20.30;86.50;;;;;;5092565;28;20383;-55
2021/08/22 03:06:19;;;;;;;10.93;9.82;;;20.20;86.70;;;;;;5092179;28;20020;-56
2021/08/22 03:08:44;;;;;;;11.55;10.45;;;20.10;86.90;;;;;;5092298;28;20043;-56
2021/08/22 03:11:10;;;;;;;11.38;9.98;;;20.20;87.30;;;;;;5092760;28;20100;-55
2021/08/22 03:13:36;;;;;;;12.82;10.88;;;20.20;87.50;;;;;;5092030;28;20182;-51
2021/08/22 03:16:02;;;;;;;11.70;10.52;;;20.10;87.80;;;;;;5092287;28;20077;-53
2021/08/22 03:18:28;;;;;;;12.93;10.68;;;20.10;87.80;;;;;;5092241;28;20028;-50
2021/08/22 03:20:53;;;;;;;11.20;10.13;;;20.00;87.90;;;;;;5075216;28;20041;-53
2021/08/22 03:23:19;;;;;;;12.38;10.88;;;20.00;88.20;;;;;;5071748;28;20047;-57
2021/08/22 03:25:44;;;;;;;12.60;11.30;;;19.90;88.60;;;;;;5071672;28;20036;-55
2021/08/22 03:28:10;;;;;;;11.30;10.20;;;19.90;88.80;;;;;;5071510;28;20085;-51
2021/08/22 03:30:35;;;;;;;17.05;10.40;;;20.00;88.80;;;;;;5071739;28;20036;-56
2021/08/22 03:33:01;;;;;;;15.10;11.05;;;20.00;89.00;;;;;;5071864;28;20430;-57
2021/08/22 03:35:27;;;;;;;11.90;10.60;;;19.90;89.30;;;;;;5053632;28;20039;-53
2021/08/22 03:37:52;;;;;;;13.35;11.05;;;19.80;89.60;;;;;;5071729;28;20078;-52
2021/08/22 03:40:18;;;;;;;12.55;10.85;;;19.80;89.70;;;;;;5071703;28;20036;-53
2021/08/22 03:42:43;;;;;;;12.75;10.90;;;19.90;89.60;;;;;;5071444;28;20025;-56
2021/08/22 03:45:09;;;;;;;11.93;10.32;;;19.90;89.70;;;;;;5071590;28;20047;-57
2021/08/22 03:47:35;;;;;;;13.32;10.63;;;19.80;90.00;;;;;;5071476;28;20051;-55
2021/08/22 03:50:00;;;;;;;11.50;10.30;;;19.80;90.30;;;;;;5071846;28;20043;-54
2021/08/22 03:52:26;;;;;;;13.65;11.10;;;19.90;90.40;;;;;;5071163;28;20549;-56
2021/08/22 03:54:52;;;;;;;11.35;9.57;;;19.80;90.50;;;;;;5071636;28;20043;-56
2021/08/22 03:57:17;;;;;;;10.80;9.80;;;19.80;90.60;;;;;;5053780;28;20456;-56
2021/08/22 03:59:43;;;;;;;12.00;10.70;;;19.80;90.60;;;;;;5082591;28;20114;-54
2021/08/22 04:02:08;;;;;;;11.52;10.27;;;19.80;90.60;;;;;;5091757;28;20369;-52
2021/08/22 04:04:34;;;;;;;11.25;10.10;;;19.80;90.60;;;;;;5091825;28;20123;-54
2021/08/22 04:06:59;;;;;;;11.57;10.27;;;19.80;90.50;;;;;;5073069;28;20036;-52
2021/08/22 04:09:25;;;;;;;11.07;9.98;;;19.80;90.60;;;;;;5091762;28;20484;-55
2021/08/22 04:11:55;;;;;;;11.48;10.25;;;19.80;90.70;;;;;;5073397;28;20040;-50
2021/08/22 04:14:21;;;;;;;11.80;10.45;;;19.70;90.90;;;;;;5091746;28;20107;-56
2021/08/22 04:16:48;;;;;;;11.32;10.20;;;19.60;91.10;;;;;;5091219;28;20103;-53
2021/08/22 04:19:14;;;;;;;11.75;10.50;;;19.60;91.30;;;;;;5089941;28;20074;-54
2021/08/22 04:21:41;;;;;;;17.13;14.82;;;19.60;91.40;;;;;;5074968;28;20174;-55
2021/08/22 04:24:07;;;;;;;36.67;25.73;;;19.60;91.40;;;;;;5074699;28;20028;-53
2021/08/22 04:26:33;;;;;;;27.00;19.23;;;19.60;91.40;;;;;;5074513;28;20033;-56
2021/08/22 04:28:59;;;;;;;16.75;13.15;;;19.60;91.40;;;;;;5074999;28;20066;-54
2021/08/22 04:31:25;;;;;;;13.13;11.73;;;19.60;91.40;;;;;;5075418;28;20075;-55
2021/08/22 04:33:50;;;;;;;13.20;11.23;;;19.60;91.40;;;;;;5074939;28;20067;-53
2021/08/22 04:36:16;;;;;;;13.55;10.93;;;19.60;91.40;;;;;;5074719;28;20043;-55
2021/08/22 04:38:42;;;;;;;16.13;11.20;;;19.70;91.40;;;;;;5074529;28;20024;-52
2021/08/22 04:41:07;;;;;;;12.25;11.02;;;19.70;91.40;;;;;;5074728;28;20035;-56
2021/08/22 04:43:33;;;;;;;15.43;11.30;;;19.70;91.40;;;;;;5074494;28;20090;-55
2021/08/22 04:45:58;;;;;;;13.20;10.02;;;19.70;91.40;;;;;;5074654;28;20043;-54
2021/08/22 04:48:24;;;;;;;10.77;9.68;;;19.70;91.50;;;;;;5074235;28;20514;-53
2021/08/22 04:50:50;;;;;;;12.60;10.38;;;19.70;91.50;;;;;;5056666;28;20500;-54
2021/08/22 04:53:16;;;;;;;11.45;10.25;;;19.70;91.60;;;;;;5056114;28;20166;-55
2021/08/22 04:55:41;;;;;;;10.43;9.52;;;19.60;91.70;;;;;;5073901;28;20392;-54
2021/08/22 04:58:07;;;;;;;12.57;10.48;;;19.70;92.10;;;;;;5074333;28;20025;-56
2021/08/22 05:00:32;;;;;;;13.23;10.40;;;19.70;92.20;;;;;;5092047;28;20070;-57
2021/08/22 05:02:58;;;;;;;10.77;9.68;;;19.70;92.00;;;;;;5094437;28;20042;-56
2021/08/22 05:05:23;;;;;;;11.10;9.98;;;19.70;92.20;;;;;;5094701;28;20506;-56
2021/08/22 05:07:49;;;;;;;11.80;10.45;;;19.60;92.10;;;;;;5094458;28;20391;-55
2021/08/22 05:10:16;;;;;;;12.93;10.63;;;19.70;92.10;;;;;;5094223;28;20111;-51
2021/08/22 05:12:42;;;;;;;10.75;9.65;;;19.70;92.10;;;;;;5094293;28;20386;-56
2021/08/22 05:15:08;;;;;;;11.45;10.30;;;19.70;92.10;;;;;;5094061;28;20122;-57
2021/08/22 05:17:34;;;;;;;11.30;10.20;;;19.80;92.20;;;;;;5094018;28;20103;-56
2021/08/22 05:19:59;;;;;;;11.45;10.35;;;19.70;92.20;;;;;;5084571;28;20080;-59
2021/08/22 05:22:25;;;;;;;11.45;10.25;;;19.80;92.20;;;;;;5073636;28;20033;-54
2021/08/22 05:24:50;;;;;;;11.13;10.02;;;19.90;92.20;;;;;;5073758;28;20050;-52
2021/08/22 05:27:16;;;;;;;13.13;10.65;;;19.90;92.10;;;;;;5073277;28;20164;-53
2021/08/22 05:29:42;;;;;;;13.98;10.35;;;19.90;92.10;;;;;;5073134;28;20496;-55
2021/08/22 05:32:07;;;;;;;11.30;9.80;;;20.00;92.10;;;;;;5073426;28;20060;-54
2021/08/22 05:34:33;;;;;;;12.80;10.65;;;20.00;92.00;;;;;;5073416;28;20032;-53
2021/08/22 05:36:59;;;;;;;13.05;10.23;;;20.10;91.80;;;;;;5073105;28;20060;-56
2021/08/22 05:39:24;;;;;;;11.32;10.23;;;20.10;91.60;;;;;;5073299;28;20111;-57
2021/08/22 05:41:50;;;;;;;13.00;11.70;;;20.10;91.70;;;;;;5073349;28;20029;-55
2021/08/22 05:44:16;;;;;;;17.25;13.13;;;20.10;91.50;;;;;;5073166;28;20042;-56
2021/08/22 05:46:41;;;;;;;16.33;12.07;;;20.10;91.40;;;;;;5072971;28;20075;-57
2021/08/22 05:49:07;;;;;;;12.57;11.27;;;20.10;91.40;;;;;;5073775;28;20449;-55
2021/08/22 05:51:32;;;;;;;12.27;11.05;;;20.20;91.60;;;;;;5073616;28;20059;-57
2021/08/22 05:53:58;;;;;;;13.40;12.05;;;20.20;91.20;;;;;;5073215;28;20036;-56
2021/08/22 05:56:23;;;;;;;14.05;11.68;;;20.20;91.20;;;;;;5072807;28;20025;-54
2021/08/22 05:58:49;;;;;;;11.45;10.30;;;20.20;91.30;;;;;;5077038;28;20472;-52
2021/08/22 06:01:15;;;;;;;11.18;9.98;;;20.20;91.30;;;;;;5092814;28;20040;-54
2021/08/22 06:03:40;;;;;;;12.13;10.93;;;20.20;91.30;;;;;;5093040;28;20032;-56
2021/08/22 06:06:08;;;;;;;15.30;13.68;;;20.20;91.20;;;;;;5092448;28;20042;-53
2021/08/22 06:08:35;;;;;;;17.48;15.75;;;20.20;91.30;;;;;;5092392;28;20060;-52
2021/08/22 06:11:01;;;;;;;14.82;12.90;;;20.20;91.40;;;;;;5092667;28;20030;-55
2021/08/22 06:13:26;;;;;;;13.45;11.93;;;20.20;91.40;;;;;;5092792;28;20040;-58
2021/08/22 06:15:52;;;;;;;13.18;11.77;;;20.10;91.70;;;;;;5092762;28;20154;-56
2021/08/22 06:18:18;;;;;;;11.85;10.60;;;20.10;91.80;;;;;;5093253;28;20027;-54
2021/08/22 06:20:47;;;;;;;11.88;10.70;;;20.00;92.30;;;;;;5077595;28;20349;-55
2021/08/22 06:23:12;;;;;;;13.38;10.98;;;20.00;92.70;;;;;;5072376;28;20036;-52
2021/08/22 06:25:38;;;;;;;13.10;11.70;;;19.90;92.60;;;;;;5072616;28;20078;-56
2021/08/22 06:28:04;;;;;;;12.40;10.18;;;19.90;92.60;;;;;;5072648;28;20169;-57
2021/08/22 06:30:30;;;;;;;14.00;11.38;;;19.80;92.60;;;;;;5075117;28;20511;-55
2021/08/22 06:32:56;;;;;;;14.02;12.63;;;19.80;92.50;;;;;;5072572;28;20064;-55
2021/08/22 06:35:22;;;;;;;12.60;11.27;;;19.80;92.60;;;;;;5072493;28;20035;-53
2021/08/22 06:37:48;;;;;;;18.02;12.18;;;19.70;92.80;;;;;;5072061;28;20388;-52
2021/08/22 06:40:14;;;;;;;12.93;11.60;;;19.60;93.10;;;;;;5072683;28;20036;-53
2021/08/22 06:42:40;;;;;;;13.75;12.15;;;19.60;93.10;;;;;;5072180;28;20458;-57
2021/08/22 06:45:06;;;;;;;13.57;11.93;;;19.60;93.10;;;;;;5072389;28;20444;-55
2021/08/22 06:47:32;;;;;;;13.50;12.30;;;19.60;93.20;;;;;;5072394;28;20119;-56
2021/08/22 06:49:57;;;;;;;18.08;11.70;;;19.70;93.20;;;;;;5073200;28;20127;-51
2021/08/22 06:52:23;;;;;;;14.65;13.18;;;19.80;93.10;;;;;;5073768;28;20037;-53
2021/08/22 06:54:48;;;;;;;12.38;11.18;;;19.70;93.20;;;;;;5072233;28;20040;-55
2021/08/22 06:57:14;;;;;;;12.60;11.32;;;19.50;93.80;;;;;;5071603;28;20499;-55
2021/08/22 06:59:40;;;;;;;15.55;12.15;;;19.50;93.70;;;;;;5082494;28;20536;-56
2021/08/22 07:02:06;;;;;;;14.77;12.30;;;19.40;94.10;;;;;;5092492;28;20084;-53
2021/08/22 07:04:32;;;;;;;13.73;11.40;;;19.10;94.40;;;;;;5092404;28;20051;-56
2021/08/22 07:06:57;;;;;;;16.90;13.10;;;19.10;94.60;;;;;;5092298;28;20028;-57
2021/08/22 07:09:23;;;;;;;17.98;12.10;;;19.20;94.60;;;;;;5093563;28;20074;-55
2021/08/22 07:11:49;;;;;;;13.23;11.82;;;19.30;94.80;;;;;;5092015;28;20069;-56
2021/08/22 07:14:14;;;;;;;17.10;12.40;;;19.40;94.30;;;;;;5083430;28;20028;-54
2021/08/22 07:16:40;;;;;;;17.20;13.15;;;19.30;94.40;;;;;;5089664;28;20034;-56
2021/08/22 07:19:06;;;;;;;15.40;13.43;;;19.10;94.50;;;;;;5090098;28;20423;-52
2021/08/22 07:21:32;;;;;;;13.90;12.40;;;19.10;94.70;;;;;;5089562;28;20043;-56
2021/08/22 07:23:58;;;;;;;15.25;13.63;;;19.00;94.90;;;;;;5071874;28;20401;-54
2021/08/22 07:26:24;;;;;;;15.00;12.18;;;19.20;94.60;;;;;;5053632;28;20032;-57
2021/08/22 07:28:49;;;;;;;15.70;13.70;;;19.30;94.50;;;;;;5071675;28;20445;-52
2021/08/22 07:31:15;;;;;;;21.35;15.50;;;19.50;94.10;;;;;;5071753;28;20036;-53
2021/08/22 07:33:41;;;;;;;24.15;21.70;;;19.50;93.70;;;;;;5084573;28;20040;-57
2021/08/22 07:36:07;;;;;;;17.67;14.73;;;19.60;93.50;;;;;;5091478;28;20032;-55
2021/08/22 07:38:33;;;;;;;20.58;15.45;;;19.60;93.30;;;;;;5070352;28;20123;-56
2021/08/22 07:40:58;;;;;;;17.27;14.55;;;19.70;93.30;;;;;;5080292;28;20125;-53
2021/08/22 07:43:24;;;;;;;17.05;14.18;;;19.70;93.30;;;;;;5082513;28;20027;-55
2021/08/22 07:45:49;;;;;;;14.98;13.20;;;19.80;93.00;;;;;;5081087;28;20036;-56
2021/08/22 07:48:15;;;;;;;19.38;14.35;;;19.80;93.00;;;;;;5064953;28;20032;-53
2021/08/22 07:50:41;;;;;;;16.65;14.07;;;19.50;93.70;;;;;;5081572;28;20052;-56
2021/08/22 07:53:06;;;;;;;18.15;14.20;;;19.50;93.80;;;;;;5079357;28;20036;-54
2021/08/22 07:55:32;;;;;;;21.05;15.85;;;19.50;93.50;;;;;;5085271;28;20066;-52
2021/08/22 07:57:57;;;;;;;15.80;13.80;;;19.50;93.60;;;;;;5084523;28;20024;-54
2021/08/22 08:00:23;;;;;;;15.13;13.52;;;19.70;93.50;;;;;;5089739;28;20105;-55
2021/08/22 08:02:49;;;;;;;18.50;13.77;;;19.80;93.40;;;;;;5084070;28;20032;-52
2021/08/22 08:05:15;;;;;;;15.50;13.50;;;20.00;93.20;;;;;;5085062;28;20111;-53
2021/08/22 08:07:40;;;;;;;18.65;16.45;;;20.20;93.00;;;;;;5084497;28;20120;-56
2021/08/22 08:10:08;;;;;;;20.88;18.77;;;20.40;92.70;;;;;;5086597;28;20032;-57
2021/08/22 08:12:34;;;;;;;15.48;13.88;;;20.50;92.10;;;;;;5095163;28;20039;-58
2021/08/22 08:15:00;;;;;;;17.38;15.18;;;20.60;92.20;;;;;;5085987;28;20115;-54
2021/08/22 08:17:27;;;;;;;17.27;14.35;;;20.60;92.00;;;;;;5082489;28;20563;-56
2021/08/22 08:19:52;;;;;;;15.25;13.57;;;20.70;91.90;;;;;;5083313;28;20017;-54
2021/08/22 08:22:18;;;;;;;18.77;13.93;;;20.80;91.80;;;;;;5083353;28;20038;-54
2021/08/22 08:24:44;;;;;;;15.30;13.70;;;21.00;91.70;;;;;;5082821;28;20483;-56
2021/08/22 08:27:09;;;;;;;19.30;14.35;;;21.10;91.40;;;;;;5085042;28;20495;-57
2021/08/22 08:29:35;;;;;;;16.98;13.60;;;21.20;91.20;;;;;;5083292;28;20036;-54
2021/08/22 08:32:01;;;;;;;17.95;14.02;;;21.20;91.20;;;;;;5085126;28;20031;-54
2021/08/22 08:34:27;;;;;;;17.02;14.05;;;21.30;91.10;;;;;;5084646;28;20379;-56
2021/08/22 08:36:53;;;;;;;23.90;18.95;;;21.60;90.70;;;;;;5082565;28;20028;-51
2021/08/22 08:39:18;;;;;;;16.10;14.05;;;21.70;90.30;;;;;;5083746;28;20024;-55
2021/08/22 08:41:44;;;;;;;16.05;13.35;;;21.70;90.50;;;;;;5084493;28;20519;-55
2021/08/22 08:44:12;;;;;;;19.75;13.25;;;21.80;90.00;;;;;;5084865;28;20024;-53
2021/08/22 08:46:47;;;;;;;17.67;14.48;;;21.60;90.40;;;;;;5080277;28;20361;-52
2021/08/22 08:49:26;;;;;;;17.05;13.05;;;21.40;90.20;;;;;;5081493;28;20055;-56
2021/08/22 08:52:03;;;;;;;19.60;13.27;;;21.40;90.60;;;;;;5075210;28;20033;-59
2021/08/22 08:54:33;;;;;;;20.52;14.68;;;21.70;90.00;;;;;;5081900;28;20147;-56
2021/08/22 08:57:00;;;;;;;14.68;12.35;;;21.70;90.10;;;;;;5079709;28;20028;-57
2021/08/22 08:59:26;;;;;;;15.55;12.98;;;21.60;90.10;;;;;;5084490;28;20135;-57
2021/08/22 09:01:57;;;;;;;17.60;12.95;;;21.70;90.20;;;;;;5066234;28;20188;-57
2021/08/22 09:04:26;;;;;;;13.63;11.88;;;21.70;90.00;;;;;;5084628;28;20115;-57
2021/08/22 09:07:09;;;;;;;15.27;12.07;;;21.90;89.50;;;;;;5083115;28;20029;-56
2021/08/22 09:10:12;;;;;;;10.32;9.30;;;22.00;89.00;;;;;;5084020;28;20028;-55
2021/08/22 09:13:18;;;;;;;16.10;11.27;;;22.20;88.20;;;;;;5086204;28;20082;-54
2021/08/22 09:16:11;;;;;;;11.18;9.07;;;22.10;89.10;;;;;;5051635;28;20048;-55
2021/08/22 09:18:59;;;;;;;10.07;8.00;;;22.40;87.70;;;;;;5089536;28;20106;-56
2021/08/22 09:22:02;;;;;;;8.07;7.28;;;22.40;86.90;;;;;;5076802;28;20024;-54
2021/08/22 09:25:05;;;;;;;7.93;6.60;;;22.20;87.00;;;;;;5073638;28;20029;-55
2021/08/22 09:28:04;;;;;;;7.00;6.30;;;22.20;87.10;;;;;;5081417;28;20064;-55
2021/08/22 09:31:07;;;;;;;9.93;7.13;;;22.70;86.30;;;;;;5093983;28;20028;-55
2021/08/22 09:34:10;;;;;;;10.02;7.30;;;22.90;86.00;;;;;;5094680;28;20063;-55
2021/08/22 09:37:13;;;;;;;9.57;7.28;;;23.00;85.80;;;;;;5095082;28;20043;-54
2021/08/22 09:40:16;;;;;;;8.05;6.70;;;23.10;85.10;;;;;;5093096;28;20024;-56
2021/08/22 09:43:19;;;;;;;10.48;7.28;;;23.10;85.30;;;;;;5088644;28;20039;-56
2021/08/22 09:46:15;;;;;;;9.32;7.47;;;22.80;85.90;;;;;;5081390;28;20036;-56
2021/08/22 09:48:58;;;;;;;8.63;6.55;;;23.00;85.90;;;;;;5079470;28;20032;-55
2021/08/22 09:51:51;;;;;;;8.95;7.15;;;23.20;85.20;;;;;;5093837;28;20028;-56
2021/08/22 09:54:54;;;;;;;7.90;7.10;;;23.20;85.40;;;;;;5073781;28;20039;-56
2021/08/22 09:57:41;;;;;;;9.25;7.65;;;22.90;85.70;;;;;;5073954;28;20028;-57
2021/08/22 10:00:18;;;;;;;9.05;8.15;;;22.80;86.00;;;;;;5074132;28;20468;-57
2021/08/22 10:03:21;;;;;;;8.27;7.45;;;22.70;86.20;;;;;;5073651;28;20028;-56
2021/08/22 10:06:08;;;;;;;10.82;7.63;;;22.50;86.80;;;;;;5089005;28;20068;-65
2021/08/22 10:08:39;;;;;;;8.10;7.13;;;22.70;86.60;;;;;;5093413;28;20020;-58
2021/08/22 10:11:09;;;;;;;8.98;7.82;;;22.70;87.10;;;;;;5093122;28;20058;-63
2021/08/22 10:13:37;;;;;;;9.05;6.97;;;22.70;86.90;;;;;;5093395;28;20503;-58
2021/08/22 10:16:02;;;;;;;8.48;7.03;;;22.50;87.50;;;;;;5083822;28;20040;-55
2021/08/22 10:18:28;;;;;;;11.18;6.82;;;22.40;88.60;;;;;;5080923;28;20043;-57
2021/08/22 10:21:02;;;;;;;8.60;6.43;;;22.30;88.40;;;;;;5075674;28;20057;-53
2021/08/22 10:23:38;;;;;;;10.13;6.90;;;22.20;88.40;;;;;;5071468;28;20041;-56
2021/08/22 10:26:04;;;;;;;7.80;6.60;;;22.10;88.90;;;;;;5078810;28;20035;-56
2021/08/22 10:28:44;;;;;;;8.32;6.70;;;22.10;88.90;;;;;;5073889;28;20416;-53
2021/08/22 10:31:10;;;;;;;10.50;6.95;;;22.10;89.60;;;;;;5082830;28;20101;-57
2021/08/22 10:33:49;;;;;;;9.10;6.75;;;22.20;89.70;;;;;;5080293;28;20478;-54
2021/08/22 10:36:30;;;;;;;8.32;7.00;;;22.20;90.00;;;;;;5082813;28;20112;-57
2021/08/22 10:39:26;;;;;;;11.82;7.40;;;22.50;89.30;;;;;;5083428;28;20037;-56
2021/08/22 10:41:53;;;;;;;8.85;6.70;;;22.70;88.10;;;;;;5079761;28;20137;-54
2021/08/22 10:44:34;;;;;;;9.65;6.78;;;22.80;88.40;;;;;;5078785;28;20021;-54
2021/08/22 10:47:08;;;;;;;10.93;6.75;;;22.90;87.50;;;;;;5089162;28;20032;-61
2021/08/22 10:49:52;;;;;;;8.52;6.78;;;23.00;87.00;;;;;;5091753;28;20031;-61
2021/08/22 10:52:30;;;;;;;;;;;23.20;86.50;;;;;;5092505;28;20036;-59
2021/08/22 10:55:11;;;;;;;10.93;6.50;;;23.60;85.90;;;;;;5092346;28;20016;-58
2021/08/22 10:57:43;;;;;;;6.88;6.20;;;23.80;84.90;;;;;;5074226;28;20028;-59
2021/08/22 11:00:23;;;;;;;9.90;6.68;;;23.90;84.00;;;;;;5092187;28;20025;-59
2021/08/22 11:02:50;;;;;;;13.48;6.82;;;23.70;85.20;;;;;;5093153;28;20032;-60
2021/08/22 11:05:21;;;;;;;8.93;7.10;;;23.60;85.60;;;;;;5092845;28;20036;-59
2021/08/22 11:07:52;;;;;;;9.82;6.93;;;23.80;84.70;;;;;;5092426;28;20040;-59
2021/08/22 11:10:28;;;;;;;7.97;6.95;;;23.90;84.10;;;;;;5092226;28;20040;-59
2021/08/22 11:12:54;;;;;;;8.25;6.43;;;24.10;83.60;;;;;;5091839;28;20028;-59
2021/08/22 11:15:24;;;;;;;8.05;6.57;;;24.30;82.70;;;;;;5092130;28;20039;-59
2021/08/22 11:17:52;;;;;;;7.18;6.32;;;24.30;82.90;;;;;;5092171;28;20030;-58
2021/08/22 11:20:19;;;;;;;7.70;6.32;;;24.00;83.70;;;;;;5080420;28;20044;-59
2021/08/22 11:22:45;;;;;;;8.10;6.55;;;24.10;83.60;;;;;;5072032;28;20154;-55
2021/08/22 11:25:12;;;;;;;7.43;6.70;;;24.30;82.80;;;;;;5071980;28;20398;-58
2021/08/22 11:27:38;;;;;;;9.70;7.22;;;24.20;84.00;;;;;;5072542;28;20400;-57
2021/08/22 11:30:09;;;;;;;7.82;6.32;;;24.10;83.00;;;;;;5077310;28;20075;-56
2021/08/22 11:32:36;;;;;;;7.65;6.38;;;24.00;83.30;;;;;;5094567;28;20093;-56
2021/08/22 11:35:12;;;;;;;11.20;6.90;;;23.90;84.20;;;;;;5083559;28;20127;-57
2021/08/22 11:37:38;;;;;;;10.35;7.20;;;23.80;83.90;;;;;;5090337;28;20070;-57
2021/08/22 11:40:06;;;;;;;7.50;6.68;;;23.70;84.00;;;;;;5067022;28;20028;-56
2021/08/22 11:42:32;;;;;;;10.63;6.47;;;23.50;84.90;;;;;;5091196;28;20020;-55
2021/08/22 11:45:12;;;;;;;8.23;7.32;;;23.50;86.30;;;;;;5059095;28;20105;-55
2021/08/22 11:47:38;;;;;;;9.38;7.30;;;23.30;87.20;;;;;;5075609;28;20041;-55
2021/08/22 11:50:07;;;;;;;9.98;7.40;;;23.00;87.80;;;;;;5082248;28;20034;-57
2021/08/22 11:52:43;;;;;;;8.90;7.18;;;23.10;87.90;;;;;;5095275;28;20065;-55
2021/08/22 11:55:10;;;;;;;9.35;8.10;;;23.10;88.50;;;;;;5093221;28;20032;-55
2021/08/22 11:57:36;;;;;;;12.40;7.95;;;23.00;88.80;;;;;;5075693;28;20476;-54
2021/08/22 12:00:08;;;;;;;8.10;7.30;;;23.00;88.50;;;;;;5075250;28;20120;-54
2021/08/22 12:02:34;;;;;;;8.80;7.90;;;22.90;88.50;;;;;;5075055;28;20430;-56
2021/08/22 12:05:21;;;;;;;9.20;7.70;;;23.00;88.70;;;;;;5075444;28;20039;-55
2021/08/22 12:07:48;;;;;;;9.82;7.50;;;23.20;88.20;;;;;;5087635;28;20098;-52
2021/08/22 12:10:21;;;;;;;9.55;7.78;;;23.40;86.90;;;;;;5095712;28;20544;-54
2021/08/22 12:12:47;;;;;;;7.10;6.40;;;23.50;86.40;;;;;;5095695;28;20503;-56
2021/08/22 12:15:13;;;;;;;9.30;7.50;;;23.60;85.70;;;;;;5095177;28;20043;-55
2021/08/22 12:17:38;;;;;;;7.95;6.97;;;23.70;86.00;;;;;;5095624;28;20028;-55
2021/08/22 12:20:22;;;;;;;7.53;6.78;;;24.00;85.10;;;;;;5085474;28;20107;-58
2021/08/22 12:23:05;;;;;;;7.95;6.85;;;24.20;84.40;;;;;;5075180;28;20112;-56
2021/08/22 12:25:32;;;;;;;8.60;6.65;;;24.30;83.80;;;;;;5056697;28;20064;-56
2021/08/22 12:28:23;;;;;;;7.80;6.97;;;24.40;83.40;;;;;;5074976;28;20062;-53
2021/08/22 12:31:02;;;;;;;7.30;6.60;;;24.40;83.50;;;;;;5082672;28;20040;-51
2021/08/22 12:33:36;;;;;;;7.82;7.03;;;24.40;83.00;;;;;;5095042;28;20036;-56
2021/08/22 12:36:14;;;;;;;7.97;7.18;;;24.50;83.20;;;;;;5094516;28;20040;-56
2021/08/22 12:38:48;;;;;;;6.70;5.78;;;24.10;84.40;;;;;;5095300;28;20036;-58
2021/08/22 12:41:23;;;;;;;7.50;6.80;;;24.00;84.40;;;;;;5088685;28;20043;-55
2021/08/22 12:43:49;;;;;;;10.85;9.68;;;24.10;84.40;;;;;;5075597;28;20055;-55
2021/08/22 12:46:14;;;;;;;7.30;6.55;;;24.10;84.80;;;;;;5074486;28;20483;-57